Mound Valley, Kansas
Current Conditions -  °F | °C
As of 3:52 PM on Friday 28 Nov 2014 (Local Time) from KPPF Reporting Station
Clear Clear  
Wind Chill: 63°   Ceiling: Unl
Heat Index: 63°   Visibility: 10mi
Dew Point: 36°   Wind: 13mph
Humidity: 37%   Direction: 200°SSW
Pressure: 29.86"   Gusts: 25mph
Location:  37.21°N, 95.4°W
Report Text: KPPF 282152Z AUTO 20011G22KT 10SM CLR 17/02 A2986 RMK AO2 SLP109 T01720022
Loading
Personal Weather Stations






























Interactive Weather Map New forecast layout! Learn more

10-Day Weather Forecast

Advertisements
Track Severe Weather on mobile